Time;durP1;ratioP1;P1;durP2;ratioP2;P2;SDS_P1;SDS_P2;PMS_P1;PMS_P2;Temp;Humidity;BMP_temperature;BMP_pressure;BME280_temperature;BME280_humidity;BME280_pressure;Samples;Min_cycle;Max_cycle;Signal;HPM_P1;HPM_P2
2022/01/09 00:00:30;;;;;;;27.47;14.90;;;0.40;1.00;;;;;;4943918;29;20197;-89
2022/01/09 00:02:58;;;;;;;29.97;12.77;;;0.50;1.00;;;;;;4943329;29;20247;-91
2022/01/09 00:05:26;;;;;;;32.73;14.23;;;0.50;1.00;;;;;;4938874;29;20209;-88
2022/01/09 00:07:54;;;;;;;25.97;13.37;;;0.50;1.00;;;;;;4938797;29;20197;-89
2022/01/09 00:10:21;;;;;;;30.73;14.20;;;0.50;1.00;;;;;;4938901;29;20662;-90
2022/01/09 00:12:49;;;;;;;28.37;13.33;;;0.50;1.00;;;;;;4938794;29;20208;-90
2022/01/09 00:15:16;;;;;;;27.60;13.83;;;0.50;1.00;;;;;;4939054;29;20204;-90
2022/01/09 00:17:43;;;;;;;28.43;13.50;;;0.50;1.00;;;;;;4938720;29;20261;-89
2022/01/09 00:20:12;;;;;;;26.43;12.60;;;0.50;1.00;;;;;;4938675;29;20212;-89
2022/01/09 00:22:45;;;;;;;33.97;15.07;;;0.50;1.00;;;;;;4938688;29;20687;-89
2022/01/09 00:25:13;;;;;;;25.60;13.33;;;0.50;1.00;;;;;;4940875;29;20284;-90
2022/01/09 00:27:40;;;;;;;28.63;14.87;;;0.60;1.00;;;;;;4957773;29;20271;-89
2022/01/09 00:30:09;;;;;;;35.67;15.63;;;0.50;1.00;;;;;;4942829;28;20204;-90
2022/01/09 00:32:36;;;;;;;26.43;12.63;;;0.50;1.00;;;;;;4938556;29;20201;-90
2022/01/09 00:35:05;;;;;;;31.63;13.27;;;0.50;1.00;;;;;;4938570;29;20599;-90
2022/01/09 00:37:32;;;;;;;29.43;14.57;;;0.50;1.00;;;;;;4938601;29;20204;-89
2022/01/09 00:40:01;;;;;;;27.67;16.20;;;0.60;1.00;;;;;;4938378;29;20193;-90
2022/01/09 00:42:28;;;;;;;22.73;12.47;;;0.50;1.00;;;;;;4938425;29;20610;-90
2022/01/09 00:44:55;;;;;;;26.23;13.00;;;0.50;1.00;;;;;;4938230;29;20269;-89
2022/01/09 00:47:22;;;;;;;27.63;15.00;;;0.50;1.00;;;;;;4938222;29;20251;-91
2022/01/09 00:49:49;;;;;;;31.47;17.30;;;0.50;1.00;;;;;;4938800;29;20208;-90
2022/01/09 00:52:16;;;;;;;25.37;12.93;;;0.50;1.00;;;;;;4938364;29;20625;-91
2022/01/09 00:54:43;;;;;;;28.73;11.97;;;0.50;1.00;;;;;;4938096;29;20318;-89
2022/01/09 00:57:12;;;;;;;31.13;14.70;;;0.50;1.00;;;;;;4937805;29;20232;-90
2022/01/09 00:59:39;;;;;;;29.33;15.07;;;0.50;1.00;;;;;;4952737;29;20207;-89
2022/01/09 01:02:06;;;;;;;22.37;12.70;;;0.50;1.00;;;;;;4957426;29;20627;-90
2022/01/09 01:04:33;;;;;;;27.70;13.30;;;0.50;1.00;;;;;;4956972;29;20216;-89
2022/01/09 01:07:00;;;;;;;26.30;13.00;;;0.40;1.00;;;;;;4957370;28;20208;-89
2022/01/09 01:09:30;;;;;;;25.13;12.30;;;0.40;1.00;;;;;;4956917;28;20247;-90
2022/01/09 01:11:57;;;;;;;27.40;14.30;;;0.30;1.00;;;;;;4957198;29;20188;-89
2022/01/09 01:14:27;;;;;;;22.40;11.63;;;0.30;1.00;;;;;;4956928;29;20192;-89
2022/01/09 01:16:54;;;;;;;27.03;13.80;;;0.30;1.00;;;;;;4955843;28;20283;-89
2022/01/09 01:19:22;;;;;;;23.10;12.17;;;0.30;1.00;;;;;;4956642;29;20204;-88
2022/01/09 01:21:49;;;;;;;26.20;13.20;;;0.30;1.00;;;;;;4956884;28;20263;-88
2022/01/09 01:24:17;;;;;;;27.93;13.00;;;0.20;1.00;;;;;;4956282;29;20260;-89
2022/01/09 01:26:44;;;;;;;26.37;13.83;;;0.20;1.00;;;;;;4956243;28;20232;-89
2022/01/09 01:29:11;;;;;;;26.80;12.83;;;0.20;1.00;;;;;;4947033;29;20260;-89
2022/01/09 01:31:40;;;;;;;28.30;14.30;;;0.10;1.00;;;;;;4937236;29;20216;-89
2022/01/09 01:34:07;;;;;;;24.50;11.60;;;0.10;1.00;;;;;;4937451;29;20192;-89
2022/01/09 01:36:34;;;;;;;26.30;13.07;;;0.00;1.00;;;;;;4930629;29;20233;-89
2022/01/09 01:39:01;;;;;;;28.90;13.90;;;0.00;1.00;;;;;;4937084;29;20660;-89
2022/01/09 01:41:28;;;;;;;32.20;16.80;;;0.00;1.00;;;;;;4937053;29;20213;-89
2022/01/09 01:43:55;;;;;;;25.20;13.73;;;-0.10;1.00;;;;;;4937113;29;20208;-89
2022/01/09 01:46:22;;;;;;;31.53;16.53;;;-0.10;1.00;;;;;;4937217;29;20260;-89
2022/01/09 01:48:54;;;;;;;27.47;14.87;;;-0.10;1.00;;;;;;4937036;29;20220;-89
2022/01/09 01:51:21;;;;;;;21.87;12.40;;;-0.10;1.00;;;;;;4937126;29;20260;-89
2022/01/09 01:53:48;;;;;;;23.70;11.40;;;-0.20;1.00;;;;;;4937298;29;20363;-89
2022/01/09 01:56:19;;;;;;;33.77;15.43;;;-0.20;1.00;;;;;;4936643;29;20645;-89
2022/01/09 01:58:47;;;;;;;28.90;14.07;;;-0.20;1.00;;;;;;4936648;29;20209;-89
2022/01/09 02:01:14;;;;;;;26.40;13.50;;;-0.30;1.00;;;;;;4936512;29;20208;-88
2022/01/09 02:03:41;;;;;;;28.37;13.97;;;-0.30;1.00;;;;;;4936579;29;20288;-88
2022/01/09 02:06:09;;;;;;;27.33;13.83;;;-0.30;1.00;;;;;;4936652;29;20213;-88
2022/01/09 02:08:36;;;;;;;28.13;13.50;;;-0.30;1.00;;;;;;4936500;28;20204;-89
2022/01/09 02:11:04;;;;;;;28.73;14.07;;;-0.30;1.00;;;;;;4936216;29;20259;-88
2022/01/09 02:13:31;;;;;;;31.07;14.30;;;-0.30;1.00;;;;;;4936440;29;20201;-89
2022/01/09 02:16:00;;;;;;;28.70;15.03;;;-0.30;1.00;;;;;;4936322;29;20257;-88
2022/01/09 02:18:28;;;;;;;31.80;15.77;;;-0.30;1.00;;;;;;4936333;29;20209;-88
2022/01/09 02:20:56;;;;;;;29.27;13.97;;;-0.30;1.00;;;;;;4935994;29;20702;-89
2022/01/09 02:23:23;;;;;;;31.83;14.37;;;-0.30;1.00;;;;;;4936113;29;20245;-88
2022/01/09 02:25:51;;;;;;;30.33;15.63;;;-0.30;1.00;;;;;;4936039;29;20231;-89
2022/01/09 02:28:19;;;;;;;26.73;13.50;;;-0.30;1.00;;;;;;4935908;29;20236;-89
2022/01/09 02:30:51;;;;;;;26.53;14.07;;;-0.30;1.00;;;;;;4936033;29;20193;-88
2022/01/09 02:33:19;;;;;;;33.53;16.07;;;-0.30;1.00;;;;;;4936118;29;20207;-88
2022/01/09 02:35:50;;;;;;;27.33;13.93;;;-0.30;1.00;;;;;;4935805;29;20255;-88
2022/01/09 02:38:19;;;;;;;32.87;16.23;;;-0.30;1.00;;;;;;4935733;29;20200;-88
2022/01/09 02:40:50;;;;;;;28.70;15.00;;;-0.30;1.00;;;;;;4935817;29;20627;-88
2022/01/09 02:43:17;;;;;;;33.93;16.53;;;-0.30;1.00;;;;;;4936123;29;20189;-89
2022/01/09 02:45:47;;;;;;;32.03;14.73;;;-0.40;1.00;;;;;;4935747;29;20197;-88
2022/01/09 02:48:14;;;;;;;33.13;14.97;;;-0.40;1.00;;;;;;4935914;29;20699;-87
2022/01/09 02:50:53;;;;;;;34.97;17.47;;;-0.40;1.00;;;;;;4935888;29;20208;-89
2022/01/09 02:53:21;;;;;;;35.60;15.17;;;-0.40;1.00;;;;;;4935846;29;20208;-89
2022/01/09 02:55:49;;;;;;;31.60;14.47;;;-0.50;1.00;;;;;;4935780;29;20204;-89
2022/01/09 02:58:16;;;;;;;33.63;15.60;;;-0.50;1.00;;;;;;4934929;29;20791;-89
2022/01/09 03:00:44;;;;;;;32.10;14.87;;;-0.50;1.00;;;;;;4935864;29;20201;-89
2022/01/09 03:03:12;;;;;;;31.87;16.03;;;-0.60;1.00;;;;;;4935806;29;20276;-88
2022/01/09 03:05:39;;;;;;;32.93;14.40;;;-0.60;1.00;;;;;;4935426;29;20204;-89
2022/01/09 03:08:07;;;;;;;34.23;17.00;;;-0.60;1.00;;;;;;4935401;29;20204;-89
2022/01/09 03:10:36;;;;;;;40.43;18.87;;;-0.60;1.00;;;;;;4935652;29;20204;-88
2022/01/09 03:13:06;;;;;;;41.13;18.30;;;-0.60;1.00;;;;;;4935596;29;20201;-88
2022/01/09 03:15:34;;;;;;;40.63;16.43;;;-0.70;1.00;;;;;;4935250;29;20698;-89
2022/01/09 03:18:01;;;;;;;37.47;19.23;;;-0.70;1.00;;;;;;4935210;29;20268;-89
2022/01/09 03:20:29;;;;;;;24.93;13.33;;;-0.70;1.00;;;;;;4935455;29;21079;-89
2022/01/09 03:22:56;;;;;;;33.40;16.17;;;-0.80;1.00;;;;;;4935424;29;20264;-89
2022/01/09 03:25:24;;;;;;;36.37;17.90;;;-0.80;1.00;;;;;;4935486;29;20240;-88
2022/01/09 03:27:53;;;;;;;32.40;15.50;;;-0.80;1.00;;;;;;4935338;29;20200;-89
2022/01/09 03:30:21;;;;;;;30.20;14.43;;;-0.80;1.00;;;;;;4935427;29;20212;-89
2022/01/09 03:32:50;;;;;;;35.50;16.97;;;-0.80;1.00;;;;;;4935235;29;20554;-89
2022/01/09 03:35:21;;;;;;;36.20;17.60;;;-0.80;1.00;;;;;;4935305;29;20279;-89
2022/01/09 03:37:49;;;;;;;31.00;14.73;;;-0.80;1.00;;;;;;4935044;29;20240;-89
2022/01/09 03:40:19;;;;;;;40.27;18.93;;;-0.80;1.00;;;;;;4938234;29;20208;-89
2022/01/09 03:42:46;;;;;;;32.57;16.73;;;-0.80;1.00;;;;;;4939056;29;20235;-89
2022/01/09 03:45:16;;;;;;;36.63;17.63;;;-0.80;1.00;;;;;;4939165;29;20251;-88
2022/01/09 03:47:43;;;;;;;37.43;18.30;;;-0.90;1.00;;;;;;4938932;29;20256;-89
2022/01/09 03:50:12;;;;;;;36.20;17.90;;;-0.90;1.00;;;;;;4939154;29;20220;-88
2022/01/09 03:52:40;;;;;;;43.13;18.67;;;-0.90;1.00;;;;;;4938996;29;20221;-89
2022/01/09 03:55:10;;;;;;;35.50;17.37;;;-0.90;1.00;;;;;;4939083;29;20209;-89
2022/01/09 03:57:37;;;;;;;38.87;19.30;;;-0.90;1.00;;;;;;4938723;29;20224;-89
2022/01/09 04:00:07;;;;;;;35.43;16.77;;;-0.90;1.00;;;;;;4938850;29;20217;-89
2022/01/09 04:02:35;;;;;;;36.00;17.20;;;-0.90;1.00;;;;;;4938817;29;20220;-89
2022/01/09 04:05:02;;;;;;;42.60;19.63;;;-1.00;1.00;;;;;;4938571;29;20222;-89
2022/01/09 04:07:29;;;;;;;39.20;20.33;;;-1.00;1.00;;;;;;4938928;29;20255;-88
2022/01/09 04:09:56;;;;;;;41.93;18.37;;;-1.00;1.00;;;;;;4939000;29;20208;-89
2022/01/09 04:12:33;;;;;;;40.07;18.27;;;-1.00;1.00;;;;;;4938416;29;20273;-89
2022/01/09 04:15:03;;;;;;;40.13;19.57;;;-1.00;1.00;;;;;;4938769;29;20211;-89
2022/01/09 04:17:39;;;;;;;37.03;16.93;;;-1.00;1.00;;;;;;4938394;29;20263;-90
2022/01/09 04:20:10;;;;;;;30.43;16.10;;;-1.00;1.00;;;;;;4938752;29;20200;-89
2022/01/09 04:22:37;;;;;;;45.10;19.00;;;-1.10;1.00;;;;;;4938506;29;20213;-89
2022/01/09 04:25:05;;;;;;;41.53;21.60;;;-1.10;1.00;;;;;;4938117;29;20208;-89
2022/01/09 04:27:32;;;;;;;38.47;19.00;;;-1.00;1.00;;;;;;4938457;29;20208;-89
2022/01/09 04:29:59;;;;;;;43.17;18.17;;;-1.00;1.00;;;;;;4938380;29;20204;-88
2022/01/09 04:32:27;;;;;;;38.20;17.63;;;-1.00;1.00;;;;;;4938393;29;20216;-89
2022/01/09 04:34:54;;;;;;;33.63;17.50;;;-1.00;1.00;;;;;;4938366;29;20264;-89
2022/01/09 04:37:22;;;;;;;40.27;18.80;;;-1.00;1.00;;;;;;4937806;29;20244;-89
2022/01/09 04:39:51;;;;;;;35.03;17.67;;;-1.00;1.00;;;;;;4938123;29;20276;-89
2022/01/09 04:42:19;;;;;;;40.30;18.47;;;-1.00;1.00;;;;;;4938192;29;20267;-89
2022/01/09 04:44:46;;;;;;;51.00;21.57;;;-1.10;1.00;;;;;;4938104;29;20213;-89
2022/01/09 04:47:16;;;;;;;35.97;16.10;;;-1.10;1.00;;;;;;4938092;29;20224;-89
2022/01/09 04:49:45;;;;;;;40.17;18.50;;;-1.00;1.00;;;;;;4937961;29;20564;-88
2022/01/09 04:52:16;;;;;;;35.67;16.43;;;-1.00;1.00;;;;;;4937642;29;20204;-89
2022/01/09 04:54:45;;;;;;;43.53;21.67;;;-1.10;1.00;;;;;;4938132;29;20252;-88
2022/01/09 04:57:13;;;;;;;39.67;17.70;;;-1.00;1.00;;;;;;4937525;29;20228;-88
2022/01/09 04:59:40;;;;;;;44.67;19.33;;;-1.00;1.00;;;;;;4937988;29;20212;-88
2022/01/09 05:02:07;;;;;;;41.50;18.90;;;-1.00;1.00;;;;;;4937784;29;20204;-88
2022/01/09 05:04:52;;;;;;;47.57;20.83;;;-1.10;1.00;;;;;;4937575;29;20739;-89
2022/01/09 05:07:19;;;;;;;36.37;18.10;;;-1.00;1.00;;;;;;4937355;29;20197;-89
2022/01/09 05:09:48;;;;;;;46.67;19.30;;;-1.10;1.00;;;;;;4937201;29;20220;-88
2022/01/09 05:12:15;;;;;;;44.00;20.03;;;-1.10;1.00;;;;;;4937270;29;20727;-88
2022/01/09 05:14:42;;;;;;;41.60;18.13;;;-1.10;1.00;;;;;;4937449;29;20256;-88
2022/01/09 05:17:09;;;;;;;50.33;21.63;;;-1.10;1.00;;;;;;4937402;29;20561;-89
2022/01/09 05:19:39;;;;;;;40.07;18.10;;;-1.10;1.00;;;;;;4937328;29;20199;-88
2022/01/09 05:22:08;;;;;;;36.53;14.67;;;-1.10;1.00;;;;;;4937485;29;20291;-89
2022/01/09 05:24:35;;;;;;;36.40;15.97;;;-1.10;1.00;;;;;;4937456;29;20628;-89
2022/01/09 05:27:04;;;;;;;49.33;20.03;;;-1.10;1.00;;;;;;4937151;29;20801;-89
2022/01/09 05:29:32;;;;;;;43.23;18.87;;;-1.10;1.00;;;;;;4937503;29;20205;-89
2022/01/09 05:31:59;;;;;;;43.47;18.07;;;-1.10;1.00;;;;;;4937085;29;20200;-89
2022/01/09 05:34:26;;;;;;;40.37;18.43;;;-1.10;1.00;;;;;;4937243;29;20205;-89
2022/01/09 05:36:53;;;;;;;43.57;19.47;;;-1.10;1.00;;;;;;4936927;29;20628;-88
2022/01/09 05:39:20;;;;;;;48.90;19.80;;;-1.10;1.00;;;;;;4936681;29;20723;-88
2022/01/09 05:41:47;;;;;;;42.53;19.00;;;-1.10;1.00;;;;;;4937194;29;20200;-88
2022/01/09 05:44:17;;;;;;;51.50;22.03;;;-1.10;1.00;;;;;;4936952;29;20684;-88
2022/01/09 05:46:44;;;;;;;34.60;16.70;;;-1.10;1.00;;;;;;4936889;29;20573;-89
2022/01/09 05:49:11;;;;;;;55.37;22.40;;;-1.10;1.00;;;;;;4936776;29;20276;-89
2022/01/09 05:51:38;;;;;;;46.73;21.07;;;-1.10;1.00;;;;;;4936610;29;20209;-89
2022/01/09 05:54:05;;;;;;;50.17;21.80;;;-1.10;1.00;;;;;;4937077;29;20628;-89
2022/01/09 05:56:32;;;;;;;53.60;22.80;;;-1.10;1.00;;;;;;4936998;29;20687;-89
2022/01/09 05:58:59;;;;;;;46.90;21.10;;;-1.20;1.00;;;;;;4936487;29;20225;-89
2022/01/09 06:01:27;;;;;;;49.97;20.80;;;-1.20;1.00;;;;;;4936240;29;20201;-89
2022/01/09 06:03:54;;;;;;;59.50;25.00;;;-1.20;1.00;;;;;;4936386;29;20253;-89
2022/01/09 06:06:21;;;;;;;40.17;16.53;;;-1.20;1.00;;;;;;4936432;29;20256;-88
2022/01/09 06:08:48;;;;;;;56.40;21.40;;;-1.20;1.00;;;;;;4936142;29;20252;-89
2022/01/09 06:11:15;;;;;;;57.77;24.03;;;-1.20;1.00;;;;;;4936422;29;20201;-89
2022/01/09 06:13:42;;;;;;;49.07;20.83;;;-1.20;1.00;;;;;;4936360;29;20212;-88
2022/01/09 06:16:09;;;;;;;49.93;21.27;;;-1.20;1.00;;;;;;4936044;29;20256;-88
2022/01/09 06:18:38;;;;;;;60.73;23.80;;;-1.20;1.00;;;;;;4936525;29;20216;-88
2022/01/09 06:21:05;;;;;;;54.47;23.30;;;-1.20;1.00;;;;;;4936651;29;20260;-89
2022/01/09 06:23:34;;;;;;;61.57;24.73;;;-1.20;1.00;;;;;;4935998;29;20220;-88
2022/01/09 06:26:01;;;;;;;63.70;26.40;;;-1.20;1.00;;;;;;4944585;29;20290;-88
2022/01/09 06:28:28;;;;;;;72.47;29.47;;;-1.20;1.00;;;;;;4955198;28;20797;-89
2022/01/09 06:30:55;;;;;;;59.87;24.93;;;-1.30;1.00;;;;;;4955216;29;20203;-89
2022/01/09 06:33:22;;;;;;;68.73;30.57;;;-1.20;1.00;;;;;;4942978;29;20287;-88
2022/01/09 06:35:50;;;;;;;73.27;31.90;;;-1.20;1.00;;;;;;4936092;29;20197;-89
2022/01/09 06:38:17;;;;;;;55.27;24.13;;;-1.20;1.00;;;;;;4935840;29;20650;-89
2022/01/09 06:40:44;;;;;;;68.00;26.67;;;-1.30;1.00;;;;;;4936304;29;20237;-88
2022/01/09 06:43:11;;;;;;;59.33;25.27;;;-1.30;1.00;;;;;;4936055;29;20220;-89
2022/01/09 06:45:39;;;;;;;77.37;33.63;;;-1.30;1.00;;;;;;4936370;29;20240;-88
2022/01/09 06:48:06;;;;;;;71.77;29.00;;;-1.30;1.00;;;;;;4935973;29;20644;-89
2022/01/09 06:50:33;;;;;;;61.67;26.07;;;-1.30;1.00;;;;;;4935820;29;20271;-89
2022/01/09 06:53:01;;;;;;;62.07;25.20;;;-1.30;1.00;;;;;;4935847;29;20291;-89
2022/01/09 06:55:28;;;;;;;64.57;27.70;;;-1.30;1.00;;;;;;4935585;29;20663;-88
2022/01/09 06:57:55;;;;;;;71.13;33.43;;;-1.30;1.00;;;;;;4935804;29;20277;-88
2022/01/09 07:00:23;;;;;;;67.33;29.77;;;-1.30;1.00;;;;;;4935380;29;20201;-89
2022/01/09 07:02:50;;;;;;;73.33;34.63;;;-1.30;1.00;;;;;;4935771;29;20256;-89
2022/01/09 07:05:17;;;;;;;68.63;27.43;;;-1.30;1.00;;;;;;4944509;29;20267;-87
2022/01/09 07:07:44;;;;;;;65.60;31.83;;;-1.30;1.00;;;;;;4945871;29;20258;-88
2022/01/09 07:10:13;;;;;;;55.03;26.37;;;-1.30;1.00;;;;;;4948205;28;20204;-88
2022/01/09 07:12:48;;;;;;;69.47;30.90;;;-1.30;1.00;;;;;;4947436;29;20734;-87
2022/01/09 07:15:24;;;;;;;56.67;26.80;;;-1.30;1.00;;;;;;4949588;29;20255;-87
2022/01/09 07:17:53;;;;;;;62.43;30.17;;;-1.30;1.00;;;;;;4951789;29;20215;-89
2022/01/09 07:20:20;;;;;;;51.93;25.73;;;-1.30;1.00;;;;;;4948465;29;20248;-88
2022/01/09 07:23:08;;;;;;;63.10;28.30;;;-1.30;1.00;;;;;;4944630;29;20201;-88
2022/01/09 07:25:36;;;;;;;70.20;31.03;;;-1.30;1.00;;;;;;4947107;29;20237;-87
2022/01/09 07:28:16;;;;;;;58.07;26.03;;;-1.30;1.00;;;;;;4946758;29;20203;-89
2022/01/09 07:30:56;;;;;;;58.43;25.03;;;-1.30;1.00;;;;;;4947903;29;20187;-87
2022/01/09 07:33:27;;;;;;;56.73;23.73;;;-1.20;1.00;;;;;;4952066;28;20227;-87
2022/01/09 07:38:46;;;;;;;49.93;23.30;;;-1.20;1.00;;;;;;4940350;29;20220;-89
2022/01/09 07:41:23;;;;;;;58.27;26.53;;;-1.10;1.00;;;;;;4947726;29;20168;-90
2022/01/09 07:43:58;;;;;;;57.67;28.83;;;-1.10;1.00;;;;;;4946820;29;20247;-88
2022/01/09 07:46:28;;;;;;;57.00;26.23;;;-1.10;1.00;;;;;;4945200;29;20215;-92
2022/01/09 07:49:14;;;;;;;62.00;28.70;;;-1.10;1.00;;;;;;4946843;29;20189;-91
2022/01/09 07:52:00;;;;;;;49.07;22.40;;;-1.00;1.00;;;;;;4946245;29;20212;-87
2022/01/09 07:54:42;;;;;;;58.33;26.03;;;-1.00;1.00;;;;;;4948181;29;20542;-89
2022/01/09 07:57:17;;;;;;;46.67;21.43;;;-1.00;1.00;;;;;;4942342;29;20609;-92
2022/01/09 08:00:02;;;;;;;59.97;27.93;;;-1.00;1.00;;;;;;4948837;28;20188;-92
2022/01/09 08:02:54;;;;;;;57.80;28.23;;;-0.90;1.00;;;;;;4948950;29;20216;-93
2022/01/09 08:05:30;;;;;;;57.67;25.97;;;-0.90;1.00;;;;;;4932895;29;20212;-90
2022/01/09 08:08:15;;;;;;;55.13;24.40;;;-0.80;1.00;;;;;;4943672;29;20229;-90
2022/01/09 08:13:44;;;;;;;49.37;22.67;;;-0.70;1.00;;;;;;4927667;28;20193;-92
2022/01/09 08:16:25;;;;;;;47.30;24.20;;;-0.70;1.00;;;;;;4949693;28;20185;-89
2022/01/09 08:19:14;;;;;;;46.57;23.50;;;-0.70;1.00;;;;;;4948348;29;20251;-92
2022/01/09 08:21:42;;;;;;;46.03;21.57;;;-0.60;1.00;;;;;;4942133;29;20237;-92
2022/01/09 08:24:10;;;;;;;53.93;26.67;;;-0.50;1.00;;;;;;4944339;29;20208;-94
2022/01/09 08:26:37;;;;;;;48.23;23.63;;;-0.50;1.00;;;;;;4961951;28;20243;-91
2022/01/09 08:29:05;;;;;;;45.33;23.00;;;-0.50;1.00;;;;;;4967795;28;20211;-87
2022/01/09 08:31:38;;;;;;;46.30;22.93;;;-0.40;1.00;;;;;;4969708;28;20220;-91
2022/01/09 08:34:14;;;;;;;46.53;22.20;;;-0.30;1.00;;;;;;4968299;29;20212;-88
2022/01/09 08:37:02;;;;;;;47.97;21.17;;;-0.30;1.00;;;;;;4969281;29;20199;-89
2022/01/09 08:39:30;;;;;;;48.80;23.33;;;-0.30;1.00;;;;;;4971447;28;20594;-89
2022/01/09 08:41:57;;;;;;;39.17;19.37;;;-0.20;1.00;;;;;;4963687;28;20212;-89
2022/01/09 08:44:28;;;;;;;46.83;22.57;;;-0.20;1.00;;;;;;4970732;28;20222;-91
2022/01/09 08:47:02;;;;;;;44.23;22.13;;;-0.10;1.00;;;;;;4968357;28;20208;-89
2022/01/09 08:49:30;;;;;;;46.67;24.07;;;0.10;1.00;;;;;;4971608;29;20631;-90
2022/01/09 08:52:02;;;;;;;41.77;20.53;;;0.30;1.00;;;;;;4972276;28;20266;-90
2022/01/09 08:54:44;;;;;;;39.43;21.70;;;0.60;1.00;;;;;;4969455;28;20200;-90
2022/01/09 09:00:18;;;;;;;38.00;20.20;;;1.10;1.00;;;;;;4951905;28;20289;-89
2022/01/09 09:02:46;;;;;;;43.67;20.67;;;1.40;1.00;;;;;;4944714;29;20217;-87
2022/01/09 09:05:13;;;;;;;35.47;19.23;;;1.60;1.00;;;;;;4940659;29;20667;-89
2022/01/09 09:07:40;;;;;;;37.63;20.27;;;1.90;1.00;;;;;;4937819;29;20222;-92
2022/01/09 09:10:09;;;;;;;39.70;19.47;;;2.00;1.00;;;;;;4945556;29;20201;-87
2022/01/09 09:12:36;;;;;;;33.73;18.43;;;2.20;1.00;;;;;;4938741;29;20176;-86
2022/01/09 09:15:07;;;;;;;37.73;21.33;;;2.30;1.00;;;;;;4938722;29;20618;-91
2022/01/09 09:17:39;;;;;;;35.97;19.83;;;2.40;1.00;;;;;;4945237;29;20219;-89
2022/01/09 09:20:13;;;;;;;38.87;21.60;;;2.50;1.00;;;;;;4947738;28;20249;-89
2022/01/09 09:22:41;;;;;;;40.53;19.47;;;2.50;99.90;;;;;;4945965;29;20255;-89
2022/01/09 09:25:15;;;;;;;44.03;21.27;;;2.50;99.90;;;;;;4947292;29;20204;-92
2022/01/09 09:27:43;;;;;;;36.27;20.40;;;2.60;99.90;;;;;;4957009;29;20287;-87
2022/01/09 09:30:25;;;;;;;39.03;20.13;;;2.60;99.90;;;;;;4952316;29;20216;-89
2022/01/09 09:33:05;;;;;;;38.07;20.17;;;2.60;99.90;;;;;;4949174;29;20203;-91
2022/01/09 09:35:43;;;;;;;42.70;22.03;;;2.70;99.90;;;;;;4942941;29;20204;-91
2022/01/09 09:38:17;;;;;;;41.27;22.63;;;2.70;99.90;;;;;;4949438;29;20248;-91
2022/01/09 09:43:55;;;;;;;36.40;19.53;;;2.80;99.90;;;;;;4952389;28;20199;-91
2022/01/09 09:46:40;;;;;;;50.47;22.10;;;2.90;99.90;;;;;;4947951;29;20199;-93
2022/01/09 09:49:22;;;;;;;35.33;18.23;;;2.90;99.90;;;;;;4953322;29;20298;-86
2022/01/09 09:51:52;;;;;;;41.40;21.13;;;2.90;1.00;;;;;;4958784;29;20647;-88
2022/01/09 09:54:19;;;;;;;37.53;19.33;;;2.80;1.00;;;;;;4950199;29;20243;-88
2022/01/09 09:56:46;;;;;;;34.50;18.60;;;2.80;1.00;;;;;;4952840;28;20233;-90
2022/01/09 09:59:14;;;;;;;37.67;21.03;;;2.70;1.00;;;;;;4953873;29;20223;-88
2022/01/09 10:01:43;;;;;;;30.23;16.03;;;2.70;1.00;;;;;;4950905;29;20205;-92
2022/01/09 10:04:27;;;;;;;34.93;18.67;;;2.60;1.00;;;;;;4946927;29;20211;-90
2022/01/09 10:06:54;;;;;;;44.00;21.80;;;2.60;1.00;;;;;;4926658;29;20247;-89
2022/01/09 10:09:25;;;;;;;39.23;18.90;;;2.50;1.00;;;;;;4930248;29;20217;-91
2022/01/09 10:15:14;;;;;;;38.93;19.00;;;2.30;1.00;;;;;;4957899;28;20256;-93
2022/01/09 10:17:44;;;;;;;41.07;22.90;;;2.20;99.90;;;;;;4951874;29;20731;-89
2022/01/09 10:20:41;;;;;;;29.40;16.13;;;2.20;99.90;;;;;;4949151;29;20224;-89
2022/01/09 10:23:14;;;;;;;42.63;19.30;;;2.00;1.00;;;;;;4907317;29;20205;-89
2022/01/09 10:25:44;;;;;;;34.17;16.87;;;2.00;99.90;;;;;;4927557;29;20234;-92
2022/01/09 10:28:13;;;;;;;40.70;20.10;;;1.90;99.90;;;;;;4938483;29;20223;-91
2022/01/09 10:34:17;;;;;;;36.93;18.07;;;1.70;99.90;;;;;;4940314;29;20207;-89
2022/01/09 10:36:55;;;;;;;40.13;20.40;;;1.70;99.90;;;;;;4928189;29;20218;-91
2022/01/09 10:39:44;;;;;;;39.40;20.00;;;1.70;1.00;;;;;;4958019;29;20230;-92
2022/01/09 10:42:38;;;;;;;43.10;20.37;;;1.70;1.00;;;;;;4956875;29;20185;-91
2022/01/09 10:45:23;;;;;;;37.30;18.07;;;1.80;99.90;;;;;;4958388;29;20193;-93
2022/01/09 10:48:12;;;;;;;35.83;17.93;;;1.90;1.00;;;;;;4959444;29;20196;-91
2022/01/09 10:51:04;;;;;;;40.60;19.30;;;1.90;1.00;;;;;;4958521;29;20252;-88
2022/01/09 10:53:57;;;;;;;39.97;19.73;;;1.90;99.90;;;;;;4958932;29;20192;-92
2022/01/09 10:59:11;;;;;;;39.50;19.73;;;1.80;1.00;;;;;;4928718;29;20243;-88
2022/01/09 11:01:39;;;;;;;41.80;18.63;;;1.70;21.30;;;;;;4930077;29;20257;-89
2022/01/09 11:04:22;;;;;;;33.63;19.67;;;1.80;99.90;;;;;;4928786;29;20206;-91
2022/01/09 11:07:05;;;;;;;34.17;17.17;;;1.80;99.90;;;;;;4940994;29;20208;-92
2022/01/09 11:09:39;;;;;;;36.70;19.00;;;1.90;86.50;;;;;;4951022;29;20212;-91
2022/01/09 11:12:16;;;;;;;38.87;20.00;;;1.90;27.90;;;;;;4934647;29;20280;-89
2022/01/09 11:14:57;;;;;;;36.50;18.27;;;1.80;1.00;;;;;;4927491;29;20200;-91
2022/01/09 11:23:23;;;;;;;34.57;16.47;;;1.50;1.00;;;;;;4957670;29;20228;-91
2022/01/09 11:26:00;;;;;;;37.33;18.43;;;1.40;1.00;;;;;;4955113;28;20212;-90
2022/01/09 11:28:41;;;;;;;39.33;19.73;;;1.30;1.00;;;;;;4958083;29;20212;-89
2022/01/09 11:31:27;;;;;;;37.90;18.27;;;1.20;1.00;;;;;;4940509;29;20220;-89
2022/01/09 11:34:15;;;;;;;38.93;18.50;;;1.20;44.80;;;;;;4952594;28;20203;-91
2022/01/09 11:37:08;;;;;;;37.33;18.30;;;1.10;99.90;;;;;;4941750;29;20209;-89
2022/01/09 11:39:38;;;;;;;35.90;19.00;;;1.10;99.90;;;;;;4930883;29;20289;-90
2022/01/09 11:42:12;;;;;;;38.10;18.93;;;1.20;99.90;;;;;;4942792;29;20201;-92
2022/01/09 11:44:57;;;;;;;40.53;19.33;;;1.20;99.90;;;;;;4926227;29;20213;-89
2022/01/09 11:48:00;;;;;;;38.53;19.93;;;1.30;1.00;;;;;;4924032;29;20232;-89
2022/01/09 11:50:30;;;;;;;37.40;19.33;;;1.40;1.00;;;;;;4922500;29;20200;-93
2022/01/09 11:53:08;;;;;;;40.57;21.03;;;1.50;1.00;;;;;;4926045;29;20204;-91
2022/01/09 11:55:38;;;;;;;33.90;17.47;;;1.60;1.00;;;;;;4922181;29;20212;-89
2022/01/09 11:58:09;;;;;;;32.33;17.73;;;1.60;99.90;;;;;;4926491;29;20197;-89
2022/01/09 12:01:03;;;;;;;33.77;17.93;;;1.60;99.90;;;;;;4942238;29;20255;-90
2022/01/09 12:03:35;;;;;;;35.10;17.87;;;1.50;99.90;;;;;;4943450;28;20200;-92
2022/01/09 12:06:56;;;;;;;43.70;21.97;;;1.50;99.90;;;;;;4947789;29;20629;-93
2022/01/09 12:09:32;;;;;;;37.50;19.13;;;1.60;99.90;;;;;;4950079;28;20199;-93
2022/01/09 12:25:57;;;;;;;30.90;15.77;;;1.60;68.20;;;;;;4933415;28;20215;-95
2022/01/09 12:28:54;;;;;;;34.63;17.47;;;1.60;99.90;;;;;;4948885;28;20209;-93
2022/01/09 12:31:49;;;;;;;33.37;17.90;;;1.60;99.90;;;;;;4936993;29;20203;-94
2022/01/09 12:34:30;;;;;;;33.77;16.27;;;1.60;18.80;;;;;;4949585;29;20217;-94
2022/01/09 12:37:04;;;;;;;39.63;18.83;;;1.60;94.20;;;;;;4948312;28;20285;-94
2022/01/09 12:39:32;;;;;;;27.33;14.33;;;1.60;99.90;;;;;;4945483;29;20247;-92
2022/01/09 12:42:01;;;;;;;31.67;16.60;;;1.60;99.90;;;;;;4946040;29;20217;-93
2022/01/09 12:44:50;;;;;;;38.77;18.43;;;1.60;99.90;;;;;;4946697;29;20208;-92
2022/01/09 12:47:34;;;;;;;;;;;;;;;;;;;;;
2022/01/09 12:50:40;;;;;;;38.40;19.40;;;1.70;99.90;;;;;;4946386;29;20213;-91
2022/01/09 12:53:38;;;;;;;35.00;17.10;;;1.80;1.00;;;;;;4887088;29;20242;-89
2022/01/09 12:56:20;;;;;;;37.43;19.17;;;1.80;99.90;;;;;;4884485;29;20591;-89
2022/01/09 12:58:50;;;;;;;36.43;18.20;;;1.90;99.90;;;;;;4884742;29;20202;-93
2022/01/09 13:01:21;;;;;;;37.07;16.83;;;1.90;99.90;;;;;;4884567;29;20648;-90
2022/01/09 13:04:01;;;;;;;33.67;16.90;;;1.90;33.80;;;;;;4885960;29;20195;-94
2022/01/09 13:06:44;;;;;;;47.90;21.73;;;1.90;1.00;;;;;;4885501;29;20194;-91
2022/01/09 13:09:27;;;;;;;31.87;16.60;;;1.90;25.30;;;;;;4885284;29;20230;-91
2022/01/09 13:12:06;;;;;;;36.90;16.00;;;1.90;28.00;;;;;;4931601;29;20213;-93
2022/01/09 13:14:34;;;;;;;38.50;20.17;;;1.90;1.00;;;;;;4946927;28;20206;-91
2022/01/09 13:17:04;;;;;;;34.30;17.90;;;1.90;20.60;;;;;;4943333;29;20228;-90
2022/01/09 13:19:33;;;;;;;31.30;15.53;;;1.80;1.00;;;;;;4945619;29;20303;-89
2022/01/09 13:22:19;;;;;;;33.73;17.80;;;1.80;1.00;;;;;;4942867;29;20281;-92
2022/01/09 13:25:02;;;;;;;34.67;19.33;;;1.90;1.00;;;;;;4943849;29;20200;-92
2022/01/09 13:31:13;;;;;;;33.93;17.40;;;1.90;1.00;;;;;;4851292;29;20203;-93
2022/01/09 13:33:56;;;;;;;40.80;19.83;;;1.80;1.00;;;;;;4846292;29;20220;-94
2022/01/09 13:36:58;;;;;;;33.77;17.63;;;1.70;1.00;;;;;;4847671;29;20245;-92
2022/01/09 13:39:28;;;;;;;37.37;17.33;;;1.70;1.00;;;;;;4851001;29;20238;-92
2022/01/09 13:45:02;;;;;;;33.27;16.80;;;1.70;1.00;;;;;;4853635;29;20196;-91
2022/01/09 13:47:30;;;;;;;35.80;20.17;;;1.60;1.00;;;;;;4833308;29;20699;-90
2022/01/09 13:50:02;;;;;;;33.30;17.90;;;1.60;1.00;;;;;;4843714;29;20649;-91
2022/01/09 13:52:35;;;;;;;37.47;17.27;;;1.60;1.00;;;;;;4842504;29;20352;-92